Time;durP1;ratioP1;P1;durP2;ratioP2;P2;SDS_P1;SDS_P2;PMS_P1;PMS_P2;Temp;Humidity;BMP_temperature;BMP_pressure;BME280_temperature;BME280_humidity;BME280_pressure;Samples;Min_cycle;Max_cycle;Signal;HPM_P1;HPM_P2
2024/03/30 00:00:18;;;;;;;6.95;3.08;;;;;;;;;;4938532;28;20059;-61
2024/03/30 00:02:43;;;;;;;6.35;3.20;;;;;;;;;;4952307;28;20447;-61
2024/03/30 00:05:08;;;;;;;6.05;2.95;;;;;;;;;;4952000;28;20053;-61
2024/03/30 00:07:40;;;;;;;6.85;3.00;;;;;;;;;;4951823;28;20047;-61
2024/03/30 00:10:06;;;;;;;6.65;3.40;;;;;;;;;;4952018;28;20199;-60
2024/03/30 00:12:31;;;;;;;7.35;3.22;;;;;;;;;;4951565;28;20487;-61
2024/03/30 00:14:56;;;;;;;4.97;2.88;;;;;;;;;;4952374;28;20491;-61
2024/03/30 00:17:22;;;;;;;5.78;3.10;;;;;;;;;;4951855;28;20525;-62
2024/03/30 00:19:47;;;;;;;5.38;3.33;;;;;;;;;;4952800;28;20053;-61
2024/03/30 00:22:13;;;;;;;6.10;3.20;;;;;;;;;;4944431;28;20767;-62
2024/03/30 00:24:38;;;;;;;5.90;3.20;;;;;;;;;;4933032;28;20126;-59
2024/03/30 00:27:03;;;;;;;7.18;3.30;;;;;;;;;;4929466;28;20039;-61
2024/03/30 00:29:28;;;;;;;5.80;3.10;;;;;;;;;;4939820;28;20043;-63
2024/03/30 00:31:54;;;;;;;5.20;2.90;;;;;;;;;;4952112;28;20675;-62
2024/03/30 00:34:19;;;;;;;6.00;3.30;;;;;;;;;;4952014;28;20529;-60
2024/03/30 00:36:44;;;;;;;4.80;3.10;;;;;;;;;;4981911;28;20042;-60
2024/03/30 00:39:12;;;;;;;5.93;3.20;;;;;;;;;;4951929;28;20038;-61
2024/03/30 00:41:38;;;;;;;6.82;3.10;;;;;;;;;;4955012;28;20093;-60
2024/03/30 00:44:03;;;;;;;5.47;2.97;;;;;;;;;;4954337;28;20415;-60
2024/03/30 00:46:28;;;;;;;6.00;3.70;;;;;;;;;;4954129;28;20039;-61
2024/03/30 00:48:53;;;;;;;6.10;2.97;;;;;;;;;;4955494;28;20045;-60
2024/03/30 00:51:19;;;;;;;5.80;3.00;;;;;;;;;;4952790;28;20055;-59
2024/03/30 00:53:44;;;;;;;4.47;2.72;;;;;;;;;;4963973;28;20104;-59
2024/03/30 00:56:09;;;;;;;6.85;3.45;;;;;;;;;;4963365;28;20104;-59
2024/03/30 00:58:35;;;;;;;5.70;3.00;;;;;;;;;;4949853;28;20043;-59
2024/03/30 01:01:00;;;;;;;4.97;3.00;;;;;;;;;;4965319;28;20043;-60
2024/03/30 01:03:26;;;;;;;5.47;2.95;;;;;;;;;;4966551;28;20066;-60
2024/03/30 01:05:51;;;;;;;5.55;3.10;;;;;;;;;;4958378;28;20552;-60
2024/03/30 01:08:17;;;;;;;5.82;2.67;;;;;;;;;;4959842;28;20069;-60
2024/03/30 01:10:42;;;;;;;5.85;3.03;;;;;;;;;;4952490;28;20154;-60
2024/03/30 01:13:08;;;;;;;5.07;2.97;;;;;;;;;;4948904;28;20062;-59
2024/03/30 01:15:33;;;;;;;5.28;2.90;;;;;;;;;;4951305;28;20093;-61
2024/03/30 01:17:59;;;;;;;4.60;2.72;;;;;;;;;;4949242;28;20039;-59
2024/03/30 01:20:24;;;;;;;4.97;3.00;;;;;;;;;;4957404;28;20598;-61
2024/03/30 01:22:50;;;;;;;6.75;3.30;;;;;;;;;;4965081;28;20049;-61
2024/03/30 01:25:16;;;;;;;4.65;3.10;;;;;;;;;;4965671;28;20102;-61
2024/03/30 01:27:42;;;;;;;4.13;2.70;;;;;;;;;;4982950;28;20480;-61
2024/03/30 01:30:09;;;;;;;4.72;2.72;;;;;;;;;;4964386;28;20215;-61
2024/03/30 01:32:34;;;;;;;4.50;2.70;;;;;;;;;;4966246;28;20184;-62
2024/03/30 01:35:00;;;;;;;5.60;2.92;;;;;;;;;;4984828;28;20200;-61
2024/03/30 01:37:25;;;;;;;4.65;2.70;;;;;;;;;;4966117;28;20046;-63
2024/03/30 01:39:50;;;;;;;6.03;3.33;;;;;;;;;;4957003;28;20035;-63
2024/03/30 01:42:16;;;;;;;6.43;3.20;;;;;;;;;;4950454;28;20046;-60
2024/03/30 01:44:41;;;;;;;5.28;2.72;;;;;;;;;;4964339;28;20041;-60
2024/03/30 01:47:06;;;;;;;6.97;2.67;;;;;;;;;;4964996;28;20030;-61
2024/03/30 01:49:32;;;;;;;4.88;2.95;;;;;;;;;;4960478;28;20039;-60
2024/03/30 01:51:58;;;;;;;5.40;3.08;;;;;;;;;;4976466;28;20035;-60
2024/03/30 01:54:23;;;;;;;4.20;2.55;;;;;;;;;;4958443;28;20024;-61
2024/03/30 01:56:48;;;;;;;4.63;2.67;;;;;;;;;;4952838;28;20039;-62
2024/03/30 01:59:14;;;;;;;4.70;2.65;;;;;;;;;;4965064;28;20114;-60
2024/03/30 02:01:46;;;;;;;4.07;2.75;;;;;;;;;;4967890;28;20045;-61
2024/03/30 02:04:11;;;;;;;5.10;2.80;;;;;;;;;;4950492;28;20031;-60
2024/03/30 02:06:36;;;;;;;5.32;2.83;;;;;;;;;;4955099;28;20031;-61
2024/03/30 02:09:02;;;;;;;5.40;2.75;;;;;;;;;;4961472;28;20517;-61
2024/03/30 02:11:27;;;;;;;4.93;2.60;;;;;;;;;;4972398;28;20454;-60
2024/03/30 02:13:52;;;;;;;5.05;2.70;;;;;;;;;;4948990;28;20086;-60
2024/03/30 02:16:19;;;;;;;4.88;2.50;;;;;;;;;;4942750;28;20047;-61
2024/03/30 02:18:44;;;;;;;5.75;2.42;;;;;;;;;;4959490;28;20031;-62
2024/03/30 02:21:10;;;;;;;4.68;2.63;;;;;;;;;;4959553;28;20455;-62
2024/03/30 02:23:35;;;;;;;4.10;2.40;;;;;;;;;;4976346;28;20035;-62
2024/03/30 02:26:00;;;;;;;3.70;2.47;;;;;;;;;;4951213;28;20035;-62
2024/03/30 02:28:29;;;;;;;4.57;2.30;;;;;;;;;;4952146;28;20065;-60
2024/03/30 02:30:54;;;;;;;4.18;2.38;;;;;;;;;;4958513;28;20039;-60
2024/03/30 02:33:20;;;;;;;3.80;2.60;;;;;;;;;;4956433;28;20520;-60
2024/03/30 02:35:45;;;;;;;4.35;2.53;;;;;;;;;;4975359;28;20034;-61
2024/03/30 02:38:10;;;;;;;6.65;2.78;;;;;;;;;;4951895;28;20118;-63
2024/03/30 02:40:37;;;;;;;5.25;2.42;;;;;;;;;;4953086;28;20503;-62
2024/03/30 02:43:03;;;;;;;3.95;2.30;;;;;;;;;;4943681;28;20043;-60
2024/03/30 02:45:28;;;;;;;4.80;2.60;;;;;;;;;;4955333;28;20511;-60
2024/03/30 02:47:54;;;;;;;4.95;2.70;;;;;;;;;;4955136;28;20031;-63
2024/03/30 02:50:19;;;;;;;4.97;2.15;;;;;;;;;;4954319;28;20058;-62
2024/03/30 02:52:44;;;;;;;4.20;2.22;;;;;;;;;;4967550;28;20038;-61
2024/03/30 02:55:10;;;;;;;3.88;2.40;;;;;;;;;;4959245;28;20050;-60
2024/03/30 02:57:35;;;;;;;4.55;2.22;;;;;;;;;;4948356;28;20036;-62
2024/03/30 03:00:00;;;;;;;4.15;2.30;;;;;;;;;;4952249;28;20058;-61
2024/03/30 03:02:25;;;;;;;4.03;2.40;;;;;;;;;;4954791;28;20074;-63
2024/03/30 03:04:51;;;;;;;4.78;2.40;;;;;;;;;;4955407;28;20530;-60
2024/03/30 03:07:16;;;;;;;4.13;2.55;;;;;;;;;;4967069;28;20027;-60
2024/03/30 03:09:42;;;;;;;4.30;2.10;;;;;;;;;;4961329;28;20054;-62
2024/03/30 03:12:07;;;;;;;4.03;2.40;;;;;;;;;;4959144;28;20046;-60
2024/03/30 03:14:33;;;;;;;5.18;2.47;;;;;;;;;;4965336;28;20035;-61
2024/03/30 03:16:58;;;;;;;4.53;2.50;;;;;;;;;;4961098;28;20542;-62
2024/03/30 03:19:23;;;;;;;5.40;2.53;;;;;;;;;;4947740;28;20047;-60
2024/03/30 03:21:49;;;;;;;5.50;2.42;;;;;;;;;;4963930;28;20047;-63
2024/03/30 03:24:14;;;;;;;4.47;2.38;;;;;;;;;;4954094;28;20042;-61
2024/03/30 03:26:40;;;;;;;4.20;2.53;;;;;;;;;;4969375;28;20191;-63
2024/03/30 03:29:05;;;;;;;6.03;2.40;;;;;;;;;;4965689;28;20045;-65
2024/03/30 03:31:30;;;;;;;4.72;2.70;;;;;;;;;;4951725;28;20047;-61
2024/03/30 03:33:56;;;;;;;5.25;2.75;;;;;;;;;;4960816;28;20121;-59
2024/03/30 03:36:21;;;;;;;6.20;2.58;;;;;;;;;;4959051;28;20073;-63
2024/03/30 03:38:46;;;;;;;5.43;2.50;;;;;;;;;;4946819;28;20039;-60
2024/03/30 03:41:12;;;;;;;5.95;2.80;;;;;;;;;;4955114;28;20043;-60
2024/03/30 03:43:40;;;;;;;5.30;2.47;;;;;;;;;;4966051;28;20428;-60
2024/03/30 03:46:05;;;;;;;5.32;2.40;;;;;;;;;;4964968;28;20035;-61
2024/03/30 03:48:30;;;;;;;4.85;2.67;;;;;;;;;;4963882;28;20139;-61
2024/03/30 03:50:55;;;;;;;4.95;2.60;;;;;;;;;;4953388;28;20081;-60
2024/03/30 03:53:21;;;;;;;4.40;2.22;;;;;;;;;;4962050;28;20125;-60
2024/03/30 03:55:46;;;;;;;5.68;2.63;;;;;;;;;;4965103;28;20493;-60
2024/03/30 03:58:11;;;;;;;4.57;2.40;;;;;;;;;;4947437;28;20043;-60
2024/03/30 04:00:37;;;;;;;4.18;2.50;;;;;;;;;;4949060;28;20043;-61
2024/03/30 04:03:02;;;;;;;5.15;2.72;;;;;;;;;;4957127;28;20113;-61
2024/03/30 04:05:27;;;;;;;5.28;2.53;;;;;;;;;;4962694;28;20109;-60
2024/03/30 04:07:53;;;;;;;5.03;2.63;;;;;;;;;;4952280;28;20507;-60
2024/03/30 04:10:20;;;;;;;4.68;2.63;;;;;;;;;;4946179;28;20150;-59
2024/03/30 04:12:50;;;;;;;5.82;2.85;;;;;;;;;;4950750;28;20535;-59
2024/03/30 04:15:16;;;;;;;4.22;2.42;;;;;;;;;;4958553;28;20035;-60
2024/03/30 04:17:41;;;;;;;4.28;2.45;;;;;;;;;;4968884;28;20527;-60
2024/03/30 04:20:07;;;;;;;5.57;2.72;;;;;;;;;;4955320;28;20126;-60
2024/03/30 04:22:32;;;;;;;5.70;2.97;;;;;;;;;;4971058;28;20439;-61
2024/03/30 04:24:58;;;;;;;5.47;2.75;;;;;;;;;;4971460;28;20046;-61
2024/03/30 04:27:23;;;;;;;4.65;2.28;;;;;;;;;;4972846;28;20045;-62
2024/03/30 04:29:48;;;;;;;5.95;2.80;;;;;;;;;;4957667;28;20047;-60
2024/03/30 04:32:14;;;;;;;5.32;2.45;;;;;;;;;;4953717;28;20039;-61
2024/03/30 04:34:40;;;;;;;4.43;2.60;;;;;;;;;;4964316;28;20055;-60
2024/03/30 04:37:05;;;;;;;5.03;2.63;;;;;;;;;;4955843;28;20463;-59
2024/03/30 04:39:30;;;;;;;5.68;2.78;;;;;;;;;;4962762;28;20097;-61
2024/03/30 04:41:57;;;;;;;5.40;2.65;;;;;;;;;;4965520;28;20051;-60
2024/03/30 04:44:23;;;;;;;5.40;2.50;;;;;;;;;;4957334;28;20035;-60
2024/03/30 04:46:48;;;;;;;5.70;2.67;;;;;;;;;;4957811;28;20039;-62
2024/03/30 04:49:13;;;;;;;5.38;2.83;;;;;;;;;;4957840;28;20514;-60
2024/03/30 04:51:39;;;;;;;5.40;2.63;;;;;;;;;;4957420;28;20505;-60
2024/03/30 04:54:04;;;;;;;5.10;2.63;;;;;;;;;;4957287;28;20071;-59
2024/03/30 04:56:29;;;;;;;4.88;2.50;;;;;;;;;;4957171;28;20637;-60
2024/03/30 04:58:55;;;;;;;6.38;2.80;;;;;;;;;;4958025;28;20565;-59
2024/03/30 05:01:20;;;;;;;5.15;2.53;;;;;;;;;;4954614;28;20157;-61
2024/03/30 05:03:45;;;;;;;4.00;2.55;;;;;;;;;;4957654;28;20045;-61
2024/03/30 05:06:11;;;;;;;5.63;2.70;;;;;;;;;;4956916;28;20049;-59
2024/03/30 05:08:36;;;;;;;6.10;3.03;;;;;;;;;;4957877;28;20391;-60
2024/03/30 05:11:01;;;;;;;5.50;2.85;;;;;;;;;;4956614;28;20062;-59
2024/03/30 05:13:27;;;;;;;4.53;2.47;;;;;;;;;;4958023;28;20077;-59
2024/03/30 05:15:52;;;;;;;5.18;2.80;;;;;;;;;;4955472;28;20043;-59
2024/03/30 05:18:18;;;;;;;4.65;2.63;;;;;;;;;;4956478;28;20130;-60
2024/03/30 05:20:49;;;;;;;4.65;2.70;;;;;;;;;;4957495;28;20061;-61
2024/03/30 05:23:33;;;;;;;5.70;3.20;;;;;;;;;;4957529;28;20093;-61
2024/03/30 05:25:59;;;;;;;5.20;2.72;;;;;;;;;;4951656;28;20039;-60
2024/03/30 05:28:28;;;;;;;6.72;3.00;;;;;;;;;;4953046;28;20031;-59
2024/03/30 05:30:54;;;;;;;5.17;2.87;;;;;;;;;;4953648;28;20034;-61
2024/03/30 05:33:19;;;;;;;5.05;2.90;;;;;;;;;;4954346;28;20029;-61
2024/03/30 05:35:48;;;;;;;4.90;2.67;;;;;;;;;;4954471;28;20109;-60
2024/03/30 05:38:14;;;;;;;4.57;2.63;;;;;;;;;;4954561;28;20563;-60
2024/03/30 05:40:39;;;;;;;6.90;2.85;;;;;;;;;;4953441;28;20117;-61
2024/03/30 05:43:05;;;;;;;4.75;2.80;;;;;;;;;;4951799;28;20553;-60
2024/03/30 05:45:30;;;;;;;5.65;2.85;;;;;;;;;;4953545;28;20031;-60
2024/03/30 05:47:56;;;;;;;4.97;2.58;;;;;;;;;;4952458;28;20058;-60
2024/03/30 05:50:21;;;;;;;4.72;2.58;;;;;;;;;;4952651;28;20230;-60
2024/03/30 05:52:47;;;;;;;6.38;2.90;;;;;;;;;;4952622;28;20133;-61
2024/03/30 05:55:12;;;;;;;4.47;2.42;;;;;;;;;;4954107;28;20042;-62
2024/03/30 05:57:37;;;;;;;5.15;2.60;;;;;;;;;;4954027;28;20725;-61
2024/03/30 06:00:04;;;;;;;5.18;2.90;;;;;;;;;;4954594;28;20835;-60
2024/03/30 06:02:30;;;;;;;4.03;2.55;;;;;;;;;;4953700;28;20517;-60
2024/03/30 06:04:55;;;;;;;4.63;2.85;;;;;;;;;;4952336;28;20033;-62
2024/03/30 06:07:20;;;;;;;5.70;2.90;;;;;;;;;;4953820;28;20062;-61
2024/03/30 06:09:46;;;;;;;5.38;2.95;;;;;;;;;;4952605;28;20066;-61
2024/03/30 06:12:11;;;;;;;5.97;2.88;;;;;;;;;;4952437;28;20043;-61
2024/03/30 06:14:36;;;;;;;5.07;2.70;;;;;;;;;;4956413;28;20038;-60
2024/03/30 06:17:02;;;;;;;5.30;2.90;;;;;;;;;;4952981;28;20108;-60
2024/03/30 06:19:27;;;;;;;5.85;2.85;;;;;;;;;;4954189;28;20523;-61
2024/03/30 06:21:52;;;;;;;5.65;3.00;;;;;;;;;;4953157;28;20090;-63
2024/03/30 06:24:18;;;;;;;4.78;2.90;;;;;;;;;;4952193;28;20130;-60
2024/03/30 06:26:43;;;;;;;5.25;2.88;;;;;;;;;;4951770;28;20134;-60
2024/03/30 06:29:09;;;;;;;4.93;2.53;;;;;;;;;;4952759;28;20121;-61
2024/03/30 06:31:34;;;;;;;4.32;2.80;;;;;;;;;;4953188;28;20047;-61
2024/03/30 06:34:00;;;;;;;7.25;3.00;;;;;;;;;;4952568;28;20042;-63
2024/03/30 06:36:25;;;;;;;5.30;2.72;;;;;;;;;;4952743;28;20128;-62
2024/03/30 06:38:51;;;;;;;5.05;2.78;;;;;;;;;;4952024;28;20515;-61
2024/03/30 06:44:00;;;;;;;6.45;3.05;;;;;;;;;;4952833;28;20054;-60
2024/03/30 06:46:25;;;;;;;6.63;2.53;;;;;;;;;;4952629;28;20035;-61
2024/03/30 06:48:50;;;;;;;6.22;2.88;;;;;;;;;;4953312;28;20042;-61
2024/03/30 06:51:16;;;;;;;5.68;2.80;;;;;;;;;;4954059;28;20039;-61
2024/03/30 06:53:41;;;;;;;6.03;2.92;;;;;;;;;;4953414;28;20426;-61
2024/03/30 06:56:06;;;;;;;4.95;2.50;;;;;;;;;;4953432;28;20479;-60
2024/03/30 06:58:32;;;;;;;7.93;3.33;;;;;;;;;;4952516;28;20043;-62
2024/03/30 07:00:58;;;;;;;4.78;2.42;;;;;;;;;;4967602;28;20180;-61
2024/03/30 07:03:23;;;;;;;7.70;3.20;;;;;;;;;;4951601;28;20119;-62
2024/03/30 07:05:48;;;;;;;6.20;3.00;;;;;;;;;;4953456;28;20078;-60
2024/03/30 07:08:14;;;;;;;5.68;2.78;;;;;;;;;;4952382;28;20125;-62
2024/03/30 07:10:39;;;;;;;5.07;2.63;;;;;;;;;;4951988;28;20150;-60
2024/03/30 07:13:04;;;;;;;5.28;2.40;;;;;;;;;;4951476;28;20511;-60
2024/03/30 07:15:29;;;;;;;6.28;2.83;;;;;;;;;;4952464;28;20097;-60
2024/03/30 07:17:57;;;;;;;6.63;2.72;;;;;;;;;;4952605;28;20054;-61
2024/03/30 07:20:23;;;;;;;6.03;3.00;;;;;;;;;;4952992;28;20035;-61
2024/03/30 07:22:48;;;;;;;5.28;2.38;;;;;;;;;;4953533;28;20648;-61
2024/03/30 07:25:13;;;;;;;5.63;2.42;;;;;;;;;;4950827;28;20526;-62
2024/03/30 07:27:39;;;;;;;5.80;2.60;;;;;;;;;;4953194;28;20468;-61
2024/03/30 07:30:04;;;;;;;5.40;2.38;;;;;;;;;;4955068;28;20175;-61
2024/03/30 07:32:30;;;;;;;5.25;2.55;;;;;;;;;;4951828;28;20046;-61
2024/03/30 07:34:55;;;;;;;6.32;2.70;;;;;;;;;;4953784;28;20070;-61
2024/03/30 07:37:20;;;;;;;8.93;3.00;;;;;;;;;;4952121;28;20120;-62
2024/03/30 07:39:45;;;;;;;4.50;2.20;;;;;;;;;;4953674;28;20114;-61
2024/03/30 07:42:11;;;;;;;4.35;2.30;;;;;;;;;;4952425;28;20051;-59
2024/03/30 07:44:36;;;;;;;5.53;2.45;;;;;;;;;;4952060;28;20134;-59
2024/03/30 07:47:05;;;;;;;6.15;2.50;;;;;;;;;;4950531;28;20039;-59
2024/03/30 07:49:30;;;;;;;4.80;2.70;;;;;;;;;;4952323;28;20035;-60
2024/03/30 07:51:56;;;;;;;4.03;2.33;;;;;;;;;;4966063;28;20054;-60
2024/03/30 07:54:21;;;;;;;6.13;2.70;;;;;;;;;;4966013;28;20026;-59
2024/03/30 07:56:56;;;;;;;4.43;2.53;;;;;;;;;;4952884;28;20062;-60
2024/03/30 07:59:21;;;;;;;5.22;2.47;;;;;;;;;;4952539;28;20065;-60
2024/03/30 08:01:47;;;;;;;6.53;2.67;;;;;;;;;;4952580;28;20805;-63
2024/03/30 08:04:12;;;;;;;4.45;2.40;;;;;;;;;;4950751;28;20038;-61
2024/03/30 08:06:38;;;;;;;4.65;2.13;;;;;;;;;;4950504;28;20489;-61
2024/03/30 08:09:03;;;;;;;8.57;2.53;;;;;;;;;;4951293;28;20043;-64
2024/03/30 08:11:28;;;;;;;6.03;2.13;;;;;;;;;;4968126;28;20621;-66
2024/03/30 08:13:54;;;;;;;5.28;2.22;;;;;;;;;;4960924;28;20094;-60
2024/03/30 08:16:19;;;;;;;6.20;2.53;;;;;;;;;;4956816;28;20160;-62
2024/03/30 08:18:44;;;;;;;5.18;2.17;;;;;;;;;;4952608;28;20027;-62
2024/03/30 08:21:10;;;;;;;5.50;2.80;;;;;;;;;;4951553;28;20032;-59
2024/03/30 08:23:35;;;;;;;7.22;2.92;;;;;;;;;;4951524;28;20035;-60
2024/03/30 08:26:00;;;;;;;7.60;2.50;;;;;;;;;;4949943;28;20569;-59
2024/03/30 08:28:26;;;;;;;4.97;2.78;;;;;;;;;;4936986;28;20060;-60
2024/03/30 08:30:51;;;;;;;5.78;2.75;;;;;;;;;;4941162;28;20527;-60
2024/03/30 08:33:16;;;;;;;5.88;2.83;;;;;;;;;;4949838;28;20035;-58
2024/03/30 08:35:51;;;;;;;6.55;3.00;;;;;;;;;;4951157;28;20131;-60
2024/03/30 08:38:17;;;;;;;6.55;2.85;;;;;;;;;;4951633;28;20126;-61
2024/03/30 08:40:42;;;;;;;4.68;2.70;;;;;;;;;;4949932;28;20038;-61
2024/03/30 08:43:07;;;;;;;5.43;3.00;;;;;;;;;;4949767;28;20631;-61
2024/03/30 08:45:33;;;;;;;5.32;2.80;;;;;;;;;;4952076;28;20476;-63
2024/03/30 08:47:58;;;;;;;5.95;2.67;;;;;;;;;;4951309;28;20538;-61
2024/03/30 08:50:23;;;;;;;4.57;2.55;;;;;;;;;;4937735;28;20138;-63
2024/03/30 08:52:48;;;;;;;5.63;2.70;;;;;;;;;;4931507;28;20867;-63
2024/03/30 08:55:14;;;;;;;5.50;2.70;;;;;;;;;;4928994;28;20043;-60
2024/03/30 08:57:39;;;;;;;5.88;2.50;;;;;;;;;;4931432;28;20043;-60
2024/03/30 09:00:08;;;;;;;5.47;2.50;;;;;;;;;;4931504;28;20036;-60
2024/03/30 09:02:35;;;;;;;4.65;2.63;;;;;;;;;;4933020;28;20182;-60
2024/03/30 09:05:00;;;;;;;6.43;2.65;;;;;;;;;;4935748;28;20510;-61
2024/03/30 09:07:26;;;;;;;9.07;3.05;;;;;;;;;;4935729;28;20059;-61
2024/03/30 09:09:51;;;;;;;5.95;2.78;;;;;;;;;;4932704;28;20069;-61
2024/03/30 09:12:16;;;;;;;14.15;2.65;;;;;;;;;;4933793;28;20044;-59
2024/03/30 09:14:42;;;;;;;8.55;2.50;;;;;;;;;;4934244;28;20047;-59
2024/03/30 09:17:07;;;;;;;10.77;2.80;;;;;;;;;;4935794;28;20426;-62
2024/03/30 09:19:32;;;;;;;9.85;2.75;;;;;;;;;;4933080;28;20043;-58
2024/03/30 09:21:57;;;;;;;6.43;2.42;;;;;;;;;;4933979;28;20044;-60
2024/03/30 09:24:23;;;;;;;10.23;2.03;;;;;;;;;;4933522;28;20036;-61
2024/03/30 09:26:48;;;;;;;8.63;2.17;;;;;;;;;;4934241;28;20058;-61
2024/03/30 09:29:13;;;;;;;8.30;2.55;;;;;;;;;;4934867;28;20035;-61
2024/03/30 09:31:39;;;;;;;10.77;2.80;;;;;;;;;;4933664;28;21255;-61
2024/03/30 09:34:04;;;;;;;7.60;2.83;;;;;;;;;;4933667;28;20058;-60
2024/03/30 09:36:29;;;;;;;7.43;3.35;;;;;;;;;;4946617;28;20483;-62
2024/03/30 09:38:55;;;;;;;6.25;3.40;;;;;;;;;;4954622;28;20498;-62
2024/03/30 09:41:20;;;;;;;7.07;3.05;;;;;;;;;;4952046;28;20525;-60
2024/03/30 09:43:45;;;;;;;5.75;2.78;;;;;;;;;;4951864;28;20027;-60
2024/03/30 09:46:11;;;;;;;7.38;2.50;;;;;;;;;;4950762;28;20047;-60
2024/03/30 09:48:37;;;;;;;5.47;2.08;;;;;;;;;;4950241;28;20043;-60
2024/03/30 09:51:03;;;;;;;6.50;2.30;;;;;;;;;;4952032;28;20529;-61
2024/03/30 09:53:28;;;;;;;4.72;2.30;;;;;;;;;;4968403;28;20042;-61
2024/03/30 09:55:53;;;;;;;6.85;2.45;;;;;;;;;;4950284;28;20577;-59
2024/03/30 09:58:19;;;;;;;8.23;2.50;;;;;;;;;;4953826;28;20148;-60
2024/03/30 10:00:45;;;;;;;7.57;2.22;;;;;;;;;;4954068;28;20035;-61
2024/03/30 10:03:10;;;;;;;7.40;2.10;;;;;;;;;;4953816;28;20054;-61
2024/03/30 10:05:38;;;;;;;5.43;1.70;;;;;;;;;;4953187;28;20138;-59
2024/03/30 10:08:03;;;;;;;6.75;1.88;;;;;;;;;;4952856;28;20038;-60
2024/03/30 10:10:29;;;;;;;4.55;1.90;;;;;;;;;;4949329;28;20043;-59
2024/03/30 10:12:55;;;;;;;9.38;2.05;;;;;;;;;;4952712;28;20122;-60
2024/03/30 10:15:41;;;;;;;8.13;2.15;;;;;;;;;;4952130;28;20427;-58
2024/03/30 10:18:06;;;;;;;6.07;1.65;;;;;;;;;;4952388;28;20109;-59
2024/03/30 10:20:32;;;;;;;8.00;2.30;;;;;;;;;;4951142;28;20035;-60
2024/03/30 10:22:57;;;;;;;5.47;1.95;;;;;;;;;;4953129;28;20027;-60
2024/03/30 10:25:22;;;;;;;3.78;1.35;;;;;;;;;;4952501;28;20106;-60
2024/03/30 10:27:48;;;;;;;3.95;1.45;;;;;;;;;;4952195;28;20077;-63
2024/03/30 10:30:13;;;;;;;5.05;1.50;;;;;;;;;;4955925;28;20051;-63
2024/03/30 10:32:41;;;;;;;5.00;1.70;;;;;;;;;;4951726;28;20125;-60
2024/03/30 10:35:09;;;;;;;5.45;1.85;;;;;;;;;;4935330;28;20083;-60
2024/03/30 10:37:35;;;;;;;4.63;1.65;;;;;;;;;;4948009;28;20035;-60
2024/03/30 10:40:06;;;;;;;5.22;1.70;;;;;;;;;;4935807;28;20035;-61
2024/03/30 10:42:32;;;;;;;4.80;1.50;;;;;;;;;;4950431;28;20535;-60
2024/03/30 10:44:58;;;;;;;4.32;1.30;;;;;;;;;;4950186;28;20031;-60
2024/03/30 10:47:24;;;;;;;5.45;1.77;;;;;;;;;;4951113;28;20027;-61
2024/03/30 10:49:49;;;;;;;5.35;1.60;;;;;;;;;;4933102;28;20440;-60
2024/03/30 10:52:14;;;;;;;5.05;1.33;;;;;;;;;;4933291;28;20026;-59
2024/03/30 10:54:41;;;;;;;4.32;1.50;;;;;;;;;;4930074;28;20030;-59
2024/03/30 10:57:06;;;;;;;5.38;1.40;;;;;;;;;;4932925;28;20030;-60
2024/03/30 10:59:34;;;;;;;3.45;1.58;;;;;;;;;;4933284;28;20019;-58
2024/03/30 11:02:00;;;;;;;4.05;1.15;;;;;;;;;;4935160;28;20031;-60
2024/03/30 11:04:25;;;;;;;2.42;1.30;;;;;;;;;;4951303;28;20023;-60
2024/03/30 11:06:50;;;;;;;4.30;1.40;;;;;;;;;;4958224;28;20015;-59
2024/03/30 11:09:16;;;;;;;6.93;1.38;;;;;;;;;;4954672;28;20146;-58
2024/03/30 11:11:42;;;;;;;5.07;1.38;;;;;;;;;;4951956;28;20035;-61
2024/03/30 11:14:07;;;;;;;4.80;1.27;;;;;;;;;;4952040;28;20023;-60
2024/03/30 11:16:45;;;;;;;5.25;1.63;;;;;;;;;;4954908;28;20019;-57
2024/03/30 11:19:10;;;;;;;3.72;1.20;;;;;;;;;;4967580;28;20047;-58
2024/03/30 11:21:39;;;;;;;4.38;1.52;;;;;;;;;;4951487;28;20080;-58
2024/03/30 11:24:05;;;;;;;3.30;1.20;;;;;;;;;;4950605;28;20038;-58
2024/03/30 11:26:31;;;;;;;6.75;1.30;;;;;;;;;;4949386;28;20031;-59
2024/03/30 11:29:03;;;;;;;5.10;1.60;;;;;;;;;;4957906;28;20375;-59
2024/03/30 11:31:48;;;;;;;3.78;1.40;;;;;;;;;;4957068;28;20090;-59
2024/03/30 11:34:15;;;;;;;5.00;1.40;;;;;;;;;;4955734;28;20031;-59
2024/03/30 11:36:42;;;;;;;5.95;1.20;;;;;;;;;;4973211;28;20046;-59
2024/03/30 11:39:09;;;;;;;3.15;1.17;;;;;;;;;;4954324;28;20034;-60
2024/03/30 11:41:35;;;;;;;3.85;1.42;;;;;;;;;;4952608;28;20027;-59
2024/03/30 11:44:07;;;;;;;4.57;1.73;;;;;;;;;;4952967;28;20478;-59
2024/03/30 11:46:32;;;;;;;4.82;1.42;;;;;;;;;;4950328;28;20041;-59
2024/03/30 11:48:57;;;;;;;4.95;1.40;;;;;;;;;;4953622;28;20030;-60
2024/03/30 11:51:23;;;;;;;4.50;1.40;;;;;;;;;;4949568;28;20581;-59
2024/03/30 11:53:48;;;;;;;4.40;1.30;;;;;;;;;;4954442;28;20027;-58
2024/03/30 11:56:14;;;;;;;4.55;1.23;;;;;;;;;;4956286;28;20031;-59
2024/03/30 11:58:40;;;;;;;5.05;1.30;;;;;;;;;;4950324;28;20027;-59
2024/03/30 12:01:06;;;;;;;4.88;1.00;;;;;;;;;;4953716;28;20042;-59
2024/03/30 12:03:31;;;;;;;4.32;1.30;;;;;;;;;;4952615;28;20031;-59
2024/03/30 12:05:57;;;;;;;4.38;1.08;;;;;;;;;;4957529;28;20061;-59
2024/03/30 12:08:23;;;;;;;4.78;1.08;;;;;;;;;;4956690;28;20042;-60
2024/03/30 12:10:52;;;;;;;4.22;1.10;;;;;;;;;;4954155;28;20062;-59
2024/03/30 12:13:26;;;;;;;6.32;1.30;;;;;;;;;;4953034;28;20043;-59
2024/03/30 12:15:52;;;;;;;3.72;1.13;;;;;;;;;;4953408;28;20098;-59
2024/03/30 12:18:17;;;;;;;5.13;1.30;;;;;;;;;;4951742;28;20818;-59
2024/03/30 12:20:44;;;;;;;3.35;1.10;;;;;;;;;;4951954;28;20037;-59
2024/03/30 12:23:12;;;;;;;3.38;0.95;;;;;;;;;;4953933;28;20081;-58
2024/03/30 12:25:37;;;;;;;4.38;1.20;;;;;;;;;;4952604;28;20066;-58
2024/03/30 12:28:03;;;;;;;5.40;1.30;;;;;;;;;;4953978;28;20074;-59
2024/03/30 12:30:28;;;;;;;3.72;1.08;;;;;;;;;;4958686;28;20248;-59
2024/03/30 12:32:54;;;;;;;5.22;1.42;;;;;;;;;;4958222;28;20058;-58
2024/03/30 12:35:20;;;;;;;4.72;1.08;;;;;;;;;;4964839;28;20069;-59
2024/03/30 12:37:45;;;;;;;3.78;1.13;;;;;;;;;;4963732;28;20500;-59
2024/03/30 12:40:10;;;;;;;3.55;0.90;;;;;;;;;;4961930;28;20636;-60
2024/03/30 12:42:36;;;;;;;4.75;1.00;;;;;;;;;;4947397;28;20058;-59
2024/03/30 12:45:01;;;;;;;1.45;0.60;;;;;;;;;;4948847;28;20061;-59
2024/03/30 12:47:27;;;;;;;3.33;0.63;;;;;;;;;;4961608;28;20074;-58
2024/03/30 12:49:52;;;;;;;1.90;0.70;;;;;;;;;;4967334;28;20038;-58
2024/03/30 12:52:18;;;;;;;1.40;0.57;;;;;;;;;;4963581;28;20598;-59
2024/03/30 12:54:44;;;;;;;2.05;0.60;;;;;;;;;;4955611;28;20038;-60
2024/03/30 12:57:09;;;;;;;2.40;0.50;;;;;;;;;;4969587;28;20431;-59
2024/03/30 12:59:35;;;;;;;2.20;0.63;;;;;;;;;;4984690;28;20545;-59
2024/03/30 13:02:03;;;;;;;3.47;0.60;;;;;;;;;;4953085;28;20113;-59
2024/03/30 13:04:29;;;;;;;1.98;0.57;;;;;;;;;;4965472;28;20035;-61
2024/03/30 13:06:54;;;;;;;1.73;0.40;;;;;;;;;;4965815;28;20061;-59
2024/03/30 13:09:23;;;;;;;3.25;0.77;;;;;;;;;;4950773;28;20039;-59
2024/03/30 13:11:49;;;;;;;2.03;0.50;;;;;;;;;;4950268;28;20070;-59
2024/03/30 13:14:14;;;;;;;1.80;0.40;;;;;;;;;;4952752;28;20575;-59
2024/03/30 13:16:39;;;;;;;3.30;0.52;;;;;;;;;;4969211;28;20050;-59
2024/03/30 13:19:14;;;;;;;2.17;0.35;;;;;;;;;;4969776;28;20034;-60
2024/03/30 13:21:40;;;;;;;3.13;0.50;;;;;;;;;;4963400;28;20074;-60
2024/03/30 13:24:06;;;;;;;3.15;0.50;;;;;;;;;;4955185;28;20168;-59
2024/03/30 13:26:31;;;;;;;2.13;0.50;;;;;;;;;;4960476;28;20069;-59
2024/03/30 13:28:56;;;;;;;2.25;0.40;;;;;;;;;;4950551;28;20031;-60
2024/03/30 13:31:22;;;;;;;2.08;0.38;;;;;;;;;;4949824;28;20165;-59
2024/03/30 13:33:47;;;;;;;1.27;0.30;;;;;;;;;;4962877;28;20129;-60
2024/03/30 13:36:12;;;;;;;1.00;0.28;;;;;;;;;;4961739;28;20487;-60
2024/03/30 13:38:38;;;;;;;1.17;0.35;;;;;;;;;;4964170;28;20034;-61
2024/03/30 13:41:03;;;;;;;1.58;0.30;;;;;;;;;;4963219;28;20031;-59
2024/03/30 13:43:28;;;;;;;1.77;0.30;;;;;;;;;;4950150;28;20036;-60
2024/03/30 13:45:54;;;;;;;2.17;0.50;;;;;;;;;;4974100;28;20391;-60
2024/03/30 13:48:19;;;;;;;1.58;0.40;;;;;;;;;;4952153;28;20523;-60
2024/03/30 13:50:45;;;;;;;0.63;0.20;;;;;;;;;;4948080;28;20380;-61
2024/03/30 13:53:10;;;;;;;1.08;0.25;;;;;;;;;;4959574;28;20035;-60
2024/03/30 13:55:35;;;;;;;1.45;0.20;;;;;;;;;;4960781;28;20098;-59
2024/03/30 13:58:01;;;;;;;1.35;0.25;;;;;;;;;;4949507;28;20040;-60
2024/03/30 14:00:27;;;;;;;3.67;0.47;;;;;;;;;;4949015;28;20067;-60
2024/03/30 14:02:52;;;;;;;1.27;0.30;;;;;;;;;;4953231;28;20043;-60
2024/03/30 14:05:18;;;;;;;2.10;0.20;;;;;;;;;;4962840;28;20034;-61
2024/03/30 14:07:44;;;;;;;1.60;0.40;;;;;;;;;;4971087;28;20039;-60
2024/03/30 14:10:09;;;;;;;1.33;0.30;;;;;;;;;;4949475;28;20136;-59
2024/03/30 14:12:34;;;;;;;2.70;0.43;;;;;;;;;;4967426;28;20043;-60
2024/03/30 14:15:02;;;;;;;1.50;0.40;;;;;;;;;;4968918;28;20101;-60
2024/03/30 14:17:31;;;;;;;2.38;0.28;;;;;;;;;;4965962;28;20027;-60
2024/03/30 14:19:56;;;;;;;2.38;0.60;;;;;;;;;;4949452;28;20039;-61
2024/03/30 14:22:22;;;;;;;1.92;0.40;;;;;;;;;;4958503;28;20042;-61
2024/03/30 14:24:47;;;;;;;1.92;0.40;;;;;;;;;;4948113;28;20122;-61
2024/03/30 14:27:17;;;;;;;4.35;0.50;;;;;;;;;;4931580;28;20028;-61
2024/03/30 14:29:43;;;;;;;1.83;0.50;;;;;;;;;;4961863;28;20062;-60
2024/03/30 14:32:08;;;;;;;1.80;0.30;;;;;;;;;;4955445;28;20035;-60
2024/03/30 14:34:33;;;;;;;2.20;0.50;;;;;;;;;;4962264;28;20015;-61
2024/03/30 14:36:59;;;;;;;3.10;0.55;;;;;;;;;;4954510;28;20106;-60